Historique des mesures à Cassis (13260), France
Quotidien Résumé Janvier 13, 2019 Unités:  US    Métrique   Métrique/US
« Précédent (Jour)
Suivant (Jour) »
Quotidien Hebdomadaire Mensuel Annuel Période au choix
  Maximum: Minimum: Moyenne:
Température: 32 °F 47.3 °F 50.9 °F
Point de rosée: 32 °F 31.8 °F 38.7 °F
Humidité: Humidity % 55 % 60 %
Vitesse du vent: WindSpeedKMH mph 4.3 mph 21.8 mph
Rafales: WindSpeedGustKMH mph - -
Vent:- - West
Pression: 0 in 29.8 in -
Précipitations: 0 in    
Historical Graphs
 
 
Mesures pour : Janvier 13, 2019
Heure Temperature Point de rosée Pression Vent Vitesse du vent Rafales Humidité Pluie (par heure) Conditions
32 °F 32 °F 0 in Calm     Humidity % 0 in SoftwareType W/m2
00:10 47.3 °F 31.8 °F 30 in NNE 7.2 mph 7.2 mph 55 % 0 in open2300-1.11 W/m2
01:10 47.8 °F 33.8 °F 29.9 in North 19.1 mph 38.5 mph 58 % 0 in open2300-1.11 W/m2
02:10 47.7 °F 34.9 °F 29.9 in NE 31.4 mph 60.8 mph 61 % 0 in open2300-1.11 W/m2
03:10 47.8 °F 35.4 °F 29.9 in NNW 23.3 mph 27.0 mph 62 % 0 in open2300-1.11 W/m2
04:10 47.5 °F 36 °F 29.9 in NNW 29.1 mph 29.1 mph 64 % 0 in open2300-1.11 W/m2
05:10 47.7 °F 36.3 °F 29.9 in WNW 15.1 mph 44.2 mph 65 % 0 in open2300-1.11 W/m2
06:10 48.7 °F 37 °F 29.9 in NNW 22.7 mph 57.3 mph 64 % 0 in open2300-1.11 W/m2
07:10 49.1 °F 37.4 °F 29.9 in WNW 22.0 mph 25.6 mph 64 % 0 in open2300-1.11 W/m2
08:10 50.4 °F 37.4 °F 29.9 in WNW 23.0 mph 26.2 mph 61 % 0 in open2300-1.11 W/m2
09:10 50.7 °F 37.8 °F 29.9 in WNW 15.1 mph 22.0 mph 61 % 0 in open2300-1.11 W/m2
10:10 51.6 °F 38.5 °F 29.9 in West 23.3 mph 25.6 mph 61 % 0 in open2300-1.11 W/m2
11:10 51.6 °F 39 °F 29.9 in NNW 23.3 mph 31.7 mph 62 % 0 in open2300-1.11 W/m2
12:10 51.8 °F 39 °F 29.9 in WNW 26.7 mph 26.7 mph 62 % 0 in open2300-1.11 W/m2
13:10 53.1 °F 39.9 °F 29.9 in NW 10.1 mph 44.6 mph 61 % 0 in open2300-1.11 W/m2
14:10 54 °F 40.8 °F 29.8 in WNW 25.9 mph 29.9 mph 61 % 0 in open2300-1.11 W/m2
15:10 54.3 °F 41.2 °F 29.8 in NNW 35.2 mph 39.9 mph 61 % 0 in open2300-1.11 W/m2
16:10 54.5 °F 41.4 °F 29.8 in West 46.5 mph 46.5 mph 61 % 0 in open2300-1.11 W/m2
17:10 55.4 °F 42.1 °F 29.8 in West 31.7 mph 35.2 mph 61 % 0 in open2300-1.11 W/m2
18:10 55.8 °F 42.4 °F 29.8 in NNW 25.6 mph 32.3 mph 61 % 0 in open2300-1.11 W/m2
19:10 55 °F 42.6 °F 29.8 in WNW 14.3 mph 28.8 mph 63 % 0 in open2300-1.11 W/m2
20:10 53.8 °F 42.3 °F 29.8 in NW 21.6 mph 21.6 mph 65 % 0 in open2300-1.11 W/m2
21:10 54.1 °F 42.6 °F 29.8 in WNW 4.3 mph 23.3 mph 65 % 0 in open2300-1.11 W/m2
22:10 55 °F 43 °F 29.8 in WNW 15.4 mph 26.7 mph 64 % 0 in open2300-1.11 W/m2
23:10 54.3 °F 42.8 °F 29.8 in NNW 34.1 mph 34.1 mph 65 % 0 in open2300-1.11 W/m2
Observations météo à CASSIS
WU-History script by Weather Underground - 1 mb